Time;durP1;ratioP1;P1;durP2;ratioP2;P2;SDS_P1;SDS_P2;PMS_P1;PMS_P2;Temp;Humidity;BMP_temperature;BMP_pressure;BME280_temperature;BME280_humidity;BME280_pressure;Samples;Min_cycle;Max_cycle;Signal;HPM_P1;HPM_P2
2022/09/11 00:01:17;;;;;;;6.45;3.65;;;;;;;;;;5053282;28;20397;-73
2022/09/11 00:03:44;;;;;;;6.43;3.90;;;;;;;;;;5053173;28;20032;-73
2022/09/11 00:06:11;;;;;;;10.40;4.13;;;;;;;;;;5053377;28;20469;-74
2022/09/11 00:08:38;;;;;;;7.30;3.85;;;;;;;;;;5053171;28;20024;-72
2022/09/11 00:11:17;;;;;;;11.13;4.18;;;;;;;;;;5053143;28;20021;-73
2022/09/11 00:13:45;;;;;;;13.57;4.20;;;;;;;;;;5053772;28;20075;-73
2022/09/11 00:16:22;;;;;;;8.13;4.22;;;;;;;;;;5053122;28;20029;-74
2022/09/11 00:18:49;;;;;;;6.25;3.45;;;;;;;;;;5053261;28;20029;-74
2022/09/11 00:21:15;;;;;;;10.10;4.18;;;;;;;;;;5053029;28;20108;-74
2022/09/11 00:23:41;;;;;;;8.50;4.07;;;;;;;;;;5052990;28;20025;-74
2022/09/11 00:26:08;;;;;;;6.82;4.20;;;;;;;;;;5052996;28;20044;-73
2022/09/11 00:28:35;;;;;;;7.40;4.00;;;;;;;;;;5053001;28;20021;-74
2022/09/11 00:31:03;;;;;;;7.53;4.40;;;;;;;;;;5035060;28;20385;-73
2022/09/11 00:33:30;;;;;;;7.93;4.18;;;;;;;;;;5052903;28;20025;-74
2022/09/11 00:35:57;;;;;;;7.03;3.85;;;;;;;;;;5052905;28;20507;-73
2022/09/11 00:38:27;;;;;;;8.90;4.00;;;;;;;;;;5053183;28;20079;-73
2022/09/11 00:40:53;;;;;;;8.75;4.03;;;;;;;;;;5053429;28;20489;-73
2022/09/11 00:43:20;;;;;;;8.85;4.30;;;;;;;;;;5052797;28;20029;-74
2022/09/11 00:45:48;;;;;;;10.07;4.80;;;;;;;;;;5053126;28;20021;-73
2022/09/11 00:48:17;;;;;;;9.02;4.47;;;;;;;;;;5053160;28;20025;-73
2022/09/11 00:50:43;;;;;;;6.80;4.68;;;;;;;;;;5053104;28;20377;-73
2022/09/11 00:53:10;;;;;;;8.38;4.20;;;;;;;;;;5052746;28;20037;-73
2022/09/11 00:55:37;;;;;;;9.80;4.20;;;;;;;;;;5053281;28;20017;-73
2022/09/11 00:58:14;;;;;;;7.00;3.88;;;;;;;;;;5052540;28;20052;-73
2022/09/11 01:00:41;;;;;;;7.75;3.85;;;;;;;;;;5053001;28;20090;-72
2022/09/11 01:03:07;;;;;;;6.57;3.90;;;;;;;;;;5052840;28;20028;-72
2022/09/11 01:05:35;;;;;;;6.28;3.88;;;;;;;;;;5052587;28;20381;-73
2022/09/11 01:08:02;;;;;;;8.65;3.42;;;;;;;;;;5052685;28;20027;-72
2022/09/11 01:10:43;;;;;;;10.88;4.40;;;;;;;;;;5052898;28;20024;-74
2022/09/11 01:13:20;;;;;;;9.60;3.72;;;;;;;;;;5052880;28;20388;-72
2022/09/11 01:15:57;;;;;;;9.25;4.30;;;;;;;;;;5053180;28;20025;-73
2022/09/11 01:18:27;;;;;;;6.93;4.03;;;;;;;;;;5053170;28;20028;-73
2022/09/11 01:20:53;;;;;;;6.28;4.43;;;;;;;;;;5052898;28;20032;-72
2022/09/11 01:23:28;;;;;;;6.60;3.97;;;;;;;;;;5052714;28;20021;-73
2022/09/11 01:25:54;;;;;;;9.48;4.38;;;;;;;;;;5052803;28;20037;-73
2022/09/11 01:28:22;;;;;;;8.18;4.28;;;;;;;;;;5052735;28;20021;-72
2022/09/11 01:30:53;;;;;;;9.40;4.40;;;;;;;;;;5055452;28;20071;-72
2022/09/11 01:33:27;;;;;;;7.40;4.13;;;;;;;;;;5055990;28;20021;-73
2022/09/11 01:35:53;;;;;;;7.93;3.83;;;;;;;;;;5056531;28;20027;-73
2022/09/11 01:38:29;;;;;;;7.15;4.38;;;;;;;;;;5056134;28;20037;-72
2022/09/11 01:40:58;;;;;;;8.32;4.35;;;;;;;;;;5056965;28;20021;-73
2022/09/11 01:43:29;;;;;;;10.13;4.45;;;;;;;;;;5056015;28;20017;-71
2022/09/11 01:45:56;;;;;;;8.13;3.55;;;;;;;;;;5055769;28;20021;-73
2022/09/11 01:48:30;;;;;;;7.90;4.20;;;;;;;;;;5055976;28;20025;-73
2022/09/11 01:50:58;;;;;;;6.25;3.63;;;;;;;;;;5055958;28;20378;-73
2022/09/11 01:53:27;;;;;;;5.38;3.78;;;;;;;;;;5055537;28;20017;-73
2022/09/11 01:56:01;;;;;;;7.07;3.63;;;;;;;;;;5055592;28;20032;-73
2022/09/11 01:58:30;;;;;;;5.18;3.35;;;;;;;;;;5055516;28;20497;-73
2022/09/11 02:01:02;;;;;;;7.00;4.05;;;;;;;;;;5055462;28;20096;-73
2022/09/11 02:03:34;;;;;;;6.32;3.28;;;;;;;;;;5055638;28;20032;-73
2022/09/11 02:06:03;;;;;;;6.75;3.35;;;;;;;;;;5055609;28;20021;-73
2022/09/11 02:08:35;;;;;;;6.88;3.72;;;;;;;;;;5055289;28;20032;-72
2022/09/11 02:11:05;;;;;;;8.38;3.80;;;;;;;;;;5055558;28;20025;-73
2022/09/11 02:13:50;;;;;;;7.57;3.30;;;;;;;;;;5037159;28;20052;-72
2022/09/11 02:16:28;;;;;;;6.53;3.50;;;;;;;;;;5055207;28;20037;-72
2022/09/11 02:18:57;;;;;;;11.15;4.13;;;;;;;;;;5055667;28;20025;-73
2022/09/11 02:21:23;;;;;;;6.32;3.40;;;;;;;;;;5055350;28;20036;-73
2022/09/11 02:23:50;;;;;;;9.25;3.83;;;;;;;;;;5054942;28;20040;-74
2022/09/11 02:26:17;;;;;;;7.43;4.15;;;;;;;;;;5055274;28;20405;-73
2022/09/11 02:28:43;;;;;;;5.60;3.65;;;;;;;;;;5054923;28;20493;-72
2022/09/11 02:31:09;;;;;;;7.85;3.80;;;;;;;;;;5054881;28;20021;-73
2022/09/11 02:33:36;;;;;;;6.30;3.42;;;;;;;;;;5054807;28;20033;-73
2022/09/11 02:36:22;;;;;;;11.30;4.35;;;;;;;;;;5055100;28;20095;-73
2022/09/11 02:38:54;;;;;;;7.35;3.55;;;;;;;;;;5054652;28;20040;-73
2022/09/11 02:41:24;;;;;;;5.88;3.45;;;;;;;;;;5054916;28;20021;-72
2022/09/11 02:43:58;;;;;;;4.75;3.00;;;;;;;;;;5054927;28;20103;-73
2022/09/11 02:46:33;;;;;;;9.10;3.42;;;;;;;;;;5054903;28;20029;-73
2022/09/11 02:49:11;;;;;;;5.97;3.30;;;;;;;;;;5054851;28;20020;-72
2022/09/11 02:51:46;;;;;;;6.90;3.38;;;;;;;;;;5054500;28;20017;-73
2022/09/11 02:54:27;;;;;;;7.72;3.50;;;;;;;;;;5054449;28;20032;-73
2022/09/11 02:56:56;;;;;;;4.93;3.22;;;;;;;;;;5054744;28;20052;-73
2022/09/11 02:59:23;;;;;;;6.10;3.50;;;;;;;;;;5053974;28;20052;-74
2022/09/11 03:01:53;;;;;;;7.35;3.15;;;;;;;;;;5054308;28;20108;-73
2022/09/11 03:04:21;;;;;;;6.97;3.78;;;;;;;;;;5054227;28;20025;-72
2022/09/11 03:06:48;;;;;;;4.85;3.20;;;;;;;;;;5054220;28;20041;-74
2022/09/11 03:09:15;;;;;;;5.80;3.28;;;;;;;;;;5054159;28;20032;-73
2022/09/11 03:11:42;;;;;;;7.47;3.80;;;;;;;;;;5054135;28;20477;-74
2022/09/11 03:14:08;;;;;;;9.80;4.30;;;;;;;;;;5054072;28;20025;-73
2022/09/11 03:16:35;;;;;;;7.80;3.90;;;;;;;;;;5054027;28;20021;-72
2022/09/11 03:19:01;;;;;;;6.97;3.85;;;;;;;;;;5053993;28;20039;-73
2022/09/11 03:21:28;;;;;;;6.43;3.47;;;;;;;;;;5053930;28;20029;-73
2022/09/11 03:23:54;;;;;;;7.63;3.85;;;;;;;;;;5053857;28;20028;-73
2022/09/11 03:26:20;;;;;;;8.05;3.85;;;;;;;;;;5053849;28;20523;-72
2022/09/11 03:28:46;;;;;;;5.15;3.33;;;;;;;;;;5054376;28;20020;-74
2022/09/11 03:31:12;;;;;;;7.93;4.05;;;;;;;;;;5054013;28;20028;-72
2022/09/11 03:33:39;;;;;;;5.57;3.70;;;;;;;;;;5053999;28;20033;-73
2022/09/11 03:36:05;;;;;;;5.80;3.50;;;;;;;;;;5053670;28;20025;-73
2022/09/11 03:38:31;;;;;;;5.95;3.80;;;;;;;;;;5054190;28;20416;-71
2022/09/11 03:40:58;;;;;;;6.32;3.85;;;;;;;;;;5054131;28;20435;-73
2022/09/11 03:43:24;;;;;;;7.60;4.03;;;;;;;;;;5053494;28;20103;-73
2022/09/11 03:45:50;;;;;;;8.82;5.63;;;;;;;;;;5054052;28;20056;-72
2022/09/11 03:48:17;;;;;;;9.07;5.60;;;;;;;;;;5053528;28;20059;-73
2022/09/11 03:50:44;;;;;;;7.90;4.07;;;;;;;;;;5053519;28;20362;-72
2022/09/11 03:53:10;;;;;;;13.30;4.22;;;;;;;;;;5053123;28;20025;-73
2022/09/11 03:55:37;;;;;;;11.40;5.28;;;;;;;;;;5053331;28;20029;-73
2022/09/11 03:58:03;;;;;;;11.20;5.20;;;;;;;;;;5053153;28;20053;-72
2022/09/11 04:00:29;;;;;;;12.45;5.20;;;;;;;;;;5053302;28;20139;-74
2022/09/11 04:02:55;;;;;;;11.23;6.10;;;;;;;;;;5053590;28;20031;-73
2022/09/11 04:05:25;;;;;;;13.05;5.20;;;;;;;;;;5035289;28;20032;-72
2022/09/11 04:07:52;;;;;;;9.27;5.05;;;;;;;;;;5053251;28;20021;-73
2022/09/11 04:10:18;;;;;;;11.20;5.28;;;;;;;;;;5053445;28;20389;-73
2022/09/11 04:12:45;;;;;;;11.20;5.13;;;;;;;;;;5053435;28;20028;-73
2022/09/11 04:15:11;;;;;;;11.95;5.68;;;;;;;;;;5053150;28;20027;-72
2022/09/11 04:17:37;;;;;;;11.43;5.50;;;;;;;;;;5053456;28;20113;-73
2022/09/11 04:20:03;;;;;;;12.48;5.72;;;;;;;;;;5053112;28;20071;-72
2022/09/11 04:22:29;;;;;;;11.05;5.72;;;;;;;;;;5053039;28;20035;-74
2022/09/11 04:24:56;;;;;;;9.27;4.78;;;;;;;;;;5052984;28;20095;-72
2022/09/11 04:27:22;;;;;;;13.45;5.32;;;;;;;;;;5053034;28;20389;-73
2022/09/11 04:29:48;;;;;;;7.75;4.18;;;;;;;;;;5052984;28;20520;-73
2022/09/11 04:32:14;;;;;;;9.70;5.03;;;;;;;;;;5053248;28;20392;-73
2022/09/11 04:34:40;;;;;;;7.25;4.70;;;;;;;;;;5052929;28;20029;-74
2022/09/11 04:37:06;;;;;;;8.35;5.03;;;;;;;;;;5053414;28;20393;-73
2022/09/11 04:39:33;;;;;;;7.75;4.95;;;;;;;;;;5052961;28;20037;-73
2022/09/11 04:42:00;;;;;;;9.07;5.65;;;;;;;;;;5053397;28;20131;-73
2022/09/11 04:44:27;;;;;;;9.20;4.78;;;;;;;;;;5053096;28;20021;-73
2022/09/11 04:46:53;;;;;;;8.38;5.30;;;;;;;;;;5053093;28;20055;-73
2022/09/11 04:49:19;;;;;;;7.55;4.47;;;;;;;;;;5052833;28;20103;-73
2022/09/11 04:51:45;;;;;;;7.80;4.53;;;;;;;;;;5053135;28;20021;-74
2022/09/11 04:54:15;;;;;;;7.00;4.50;;;;;;;;;;5052817;28;20035;-72
2022/09/11 04:56:41;;;;;;;10.57;4.75;;;;;;;;;;5052805;28;20453;-74
2022/09/11 04:59:12;;;;;;;7.55;4.55;;;;;;;;;;5052359;28;20044;-74
2022/09/11 05:01:38;;;;;;;8.00;4.60;;;;;;;;;;5053067;28;20078;-74
2022/09/11 05:04:05;;;;;;;8.35;4.70;;;;;;;;;;5054692;28;20025;-74
2022/09/11 05:06:31;;;;;;;8.70;5.25;;;;;;;;;;5056424;28;20029;-72
2022/09/11 05:09:02;;;;;;;7.78;4.75;;;;;;;;;;5056760;28;20111;-73
2022/09/11 05:11:29;;;;;;;;;;;;;;;;;;5056873;28;20025;-73
2022/09/11 05:13:57;;;;;;;8.05;5.32;;;;;;;;;;5056646;28;19970;-72
2022/09/11 05:16:25;;;;;;;9.65;5.47;;;;;;;;;;5056336;28;20049;-72
2022/09/11 05:18:52;;;;;;;6.78;4.43;;;;;;;;;;5056281;28;20028;-73
2022/09/11 05:21:18;;;;;;;6.97;4.25;;;;;;;;;;5056531;28;20096;-73
2022/09/11 05:23:47;;;;;;;5.53;3.67;;;;;;;;;;5056419;28;20497;-73
2022/09/11 05:26:14;;;;;;;7.00;4.10;;;;;;;;;;5056126;28;20017;-73
2022/09/11 05:28:40;;;;;;;8.40;4.70;;;;;;;;;;5056361;28;20078;-72
2022/09/11 05:31:15;;;;;;;7.28;4.07;;;;;;;;;;5056029;28;20470;-74
2022/09/11 05:33:41;;;;;;;8.18;4.65;;;;;;;;;;5056039;28;20025;-73
2022/09/11 05:36:07;;;;;;;8.95;4.43;;;;;;;;;;5056198;28;20469;-72
2022/09/11 05:38:37;;;;;;;4.53;3.38;;;;;;;;;;5056166;28;20484;-72
2022/09/11 05:41:08;;;;;;;7.00;3.60;;;;;;;;;;5056418;28;20100;-73
2022/09/11 05:43:34;;;;;;;;;;;;;;;;;;5056489;28;20033;-72
2022/09/11 05:46:00;;;;;;;6.97;4.22;;;;;;;;;;5056286;28;20000;-74
2022/09/11 05:48:29;;;;;;;5.50;3.78;;;;;;;;;;5055700;28;20021;-74
2022/09/11 05:51:00;;;;;;;7.15;4.60;;;;;;;;;;5055724;28;20028;-73
2022/09/11 05:53:27;;;;;;;6.00;4.07;;;;;;;;;;5055936;28;20436;-73
2022/09/11 05:55:53;;;;;;;7.50;5.00;;;;;;;;;;5055594;28;20396;-73
2022/09/11 05:58:20;;;;;;;5.75;4.03;;;;;;;;;;5055346;28;20037;-73
2022/09/11 06:00:46;;;;;;;8.60;4.32;;;;;;;;;;5055456;28;20025;-73
2022/09/11 06:03:15;;;;;;;6.63;4.68;;;;;;;;;;5055454;28;20021;-72
2022/09/11 06:05:41;;;;;;;6.67;4.50;;;;;;;;;;5055603;28;20029;-73
2022/09/11 06:08:08;;;;;;;7.68;4.90;;;;;;;;;;5055346;28;20611;-74
2022/09/11 06:10:35;;;;;;;8.50;5.28;;;;;;;;;;5055284;28;20462;-73
2022/09/11 06:13:01;;;;;;;8.13;5.30;;;;;;;;;;5055236;28;20021;-73
2022/09/11 06:15:28;;;;;;;10.10;5.22;;;;;;;;;;5054862;28;20025;-73
2022/09/11 06:17:54;;;;;;;8.23;4.43;;;;;;;;;;5055199;28;20547;-71
2022/09/11 06:20:20;;;;;;;7.70;4.88;;;;;;;;;;5037200;28;20059;-73
2022/09/11 06:22:47;;;;;;;7.97;4.80;;;;;;;;;;5055407;28;20100;-73
2022/09/11 06:25:13;;;;;;;8.00;4.68;;;;;;;;;;5055008;28;20061;-72
2022/09/11 06:27:39;;;;;;;8.00;4.78;;;;;;;;;;5054994;28;20032;-72
2022/09/11 06:30:05;;;;;;;7.03;4.60;;;;;;;;;;5054954;28;20053;-72
2022/09/11 06:32:31;;;;;;;6.75;4.32;;;;;;;;;;5054937;28;20104;-72
2022/09/11 06:34:57;;;;;;;6.70;4.30;;;;;;;;;;5055133;28;20103;-74
2022/09/11 06:37:23;;;;;;;7.28;4.95;;;;;;;;;;5054838;28;20021;-72
2022/09/11 06:39:50;;;;;;;9.68;5.47;;;;;;;;;;5054999;28;20063;-72
2022/09/11 06:42:18;;;;;;;6.45;4.50;;;;;;;;;;5055269;28;20020;-73
2022/09/11 06:44:44;;;;;;;7.45;4.68;;;;;;;;;;5054593;28;20476;-72
2022/09/11 06:47:12;;;;;;;9.52;5.22;;;;;;;;;;5054654;28;20024;-72
2022/09/11 06:49:38;;;;;;;7.25;4.88;;;;;;;;;;5054889;28;20021;-71
2022/09/11 06:52:04;;;;;;;8.23;4.63;;;;;;;;;;5054535;28;20485;-72
2022/09/11 06:54:30;;;;;;;7.75;5.00;;;;;;;;;;5054748;28;20025;-73
2022/09/11 06:56:56;;;;;;;8.82;5.18;;;;;;;;;;5054446;28;20029;-72
2022/09/11 06:59:23;;;;;;;7.82;5.18;;;;;;;;;;5053994;28;20056;-72
2022/09/11 07:01:50;;;;;;;7.63;4.75;;;;;;;;;;5054320;28;20025;-73
2022/09/11 07:04:16;;;;;;;10.45;5.22;;;;;;;;;;5054191;28;20028;-73
2022/09/11 07:06:43;;;;;;;6.40;4.40;;;;;;;;;;5054263;28;20041;-73
2022/09/11 07:09:09;;;;;;;10.00;5.72;;;;;;;;;;5054183;28;20448;-73
2022/09/11 07:11:35;;;;;;;9.35;5.70;;;;;;;;;;5054139;28;20103;-73
2022/09/11 07:14:04;;;;;;;9.43;5.13;;;;;;;;;;5054395;28;20079;-73
2022/09/11 07:16:30;;;;;;;7.50;5.05;;;;;;;;;;5054073;28;20025;-73
2022/09/11 07:18:57;;;;;;;9.68;5.55;;;;;;;;;;5054018;28;20083;-73
2022/09/11 07:21:25;;;;;;;8.27;5.30;;;;;;;;;;5054222;28;20025;-74
2022/09/11 07:23:56;;;;;;;10.73;5.28;;;;;;;;;;5054157;28;20473;-73
2022/09/11 07:26:23;;;;;;;8.48;5.00;;;;;;;;;;5053608;28;20025;-73
2022/09/11 07:28:50;;;;;;;9.15;5.43;;;;;;;;;;5053289;28;20028;-73
2022/09/11 07:31:17;;;;;;;7.75;5.30;;;;;;;;;;5053810;28;20024;-72
2022/09/11 07:33:44;;;;;;;8.25;4.88;;;;;;;;;;5054341;28;20021;-72
2022/09/11 07:36:21;;;;;;;8.27;4.45;;;;;;;;;;5053973;28;20021;-73
2022/09/11 07:38:47;;;;;;;5.57;3.50;;;;;;;;;;5053999;28;20051;-73
2022/09/11 07:41:14;;;;;;;5.13;2.90;;;;;;;;;;5054428;28;20032;-73
2022/09/11 07:43:40;;;;;;;3.90;2.63;;;;;;;;;;5053525;28;20118;-73
2022/09/11 07:46:07;;;;;;;4.03;2.75;;;;;;;;;;5053549;28;20385;-73
2022/09/11 07:48:33;;;;;;;5.93;2.47;;;;;;;;;;5053497;28;20428;-73
2022/09/11 07:51:03;;;;;;;5.57;2.55;;;;;;;;;;5053424;28;20021;-73
2022/09/11 07:53:33;;;;;;;6.15;2.45;;;;;;;;;;5053992;28;20043;-73
2022/09/11 07:55:59;;;;;;;;;;;;;;;;;;5053798;28;20017;-73
2022/09/11 07:58:25;;;;;;;5.65;2.60;;;;;;;;;;5053191;28;19923;-72
2022/09/11 08:00:56;;;;;;;3.35;2.22;;;;;;;;;;5053588;28;20021;-74
2022/09/11 08:03:23;;;;;;;4.25;2.20;;;;;;;;;;5053573;28;20028;-72
2022/09/11 08:05:49;;;;;;;5.07;2.25;;;;;;;;;;5053169;28;20032;-73
2022/09/11 08:08:15;;;;;;;4.13;2.30;;;;;;;;;;5053493;28;20420;-73
2022/09/11 08:10:41;;;;;;;8.93;2.80;;;;;;;;;;5053167;28;20086;-73
2022/09/11 08:13:07;;;;;;;3.92;2.53;;;;;;;;;;5053190;28;20045;-74
2022/09/11 08:15:34;;;;;;;6.82;2.50;;;;;;;;;;5053426;28;20029;-72
2022/09/11 08:18:00;;;;;;;3.15;2.10;;;;;;;;;;5053160;28;20036;-73
2022/09/11 08:20:26;;;;;;;3.33;2.28;;;;;;;;;;5053211;28;20078;-71
2022/09/11 08:22:52;;;;;;;4.45;2.35;;;;;;;;;;5053488;28;20100;-74
2022/09/11 08:25:18;;;;;;;5.38;2.50;;;;;;;;;;5053027;28;20040;-73
2022/09/11 08:27:44;;;;;;;4.90;2.15;;;;;;;;;;5053157;28;20022;-73
2022/09/11 08:30:11;;;;;;;4.00;2.40;;;;;;;;;;5053024;28;20028;-73
2022/09/11 08:32:38;;;;;;;3.33;2.08;;;;;;;;;;5053341;28;20091;-72
2022/09/11 08:35:05;;;;;;;6.90;1.92;;;;;;;;;;5052967;28;20116;-73
2022/09/11 08:37:31;;;;;;;5.75;2.00;;;;;;;;;;5053472;28;20032;-73
2022/09/11 08:39:57;;;;;;;2.97;1.90;;;;;;;;;;5056544;28;20033;-74
2022/09/11 08:42:26;;;;;;;6.07;2.13;;;;;;;;;;5057453;28;20477;-74
2022/09/11 08:44:54;;;;;;;4.35;2.17;;;;;;;;;;5057439;28;20540;-73
2022/09/11 08:47:23;;;;;;;4.78;1.77;;;;;;;;;;5038979;28;20056;-74
2022/09/11 08:50:01;;;;;;;7.23;1.83;;;;;;;;;;5057197;28;20021;-74
2022/09/11 08:52:27;;;;;;;4.65;2.25;;;;;;;;;;5057070;28;20074;-73
2022/09/11 08:54:56;;;;;;;3.65;1.85;;;;;;;;;;5056647;28;20025;-73
2022/09/11 08:57:37;;;;;;;4.30;1.73;;;;;;;;;;5056473;28;20029;-74
2022/09/11 09:00:09;;;;;;;3.97;1.70;;;;;;;;;;5057037;28;20468;-73
2022/09/11 09:02:45;;;;;;;3.75;1.77;;;;;;;;;;5056640;28;20021;-73
2022/09/11 09:05:18;;;;;;;3.40;1.50;;;;;;;;;;5056742;28;20032;-73
2022/09/11 09:08:00;;;;;;;6.13;1.60;;;;;;;;;;5056851;28;20055;-73
2022/09/11 09:10:45;;;;;;;5.28;1.55;;;;;;;;;;5057003;28;20036;-73
2022/09/11 09:13:17;;;;;;;4.38;1.60;;;;;;;;;;5056730;28;20071;-73
2022/09/11 09:16:02;;;;;;;4.05;1.58;;;;;;;;;;5056366;28;20027;-74
2022/09/11 09:19:05;;;;;;;4.57;1.35;;;;;;;;;;5056577;28;20056;-74
2022/09/11 09:21:36;;;;;;;1.77;1.33;;;;;;;;;;4956188;29;20094;-74
2022/09/11 09:24:04;;;;;;;2.88;1.42;;;;;;;;;;5040734;28;20072;-72
2022/09/11 09:26:34;;;;;;;2.80;1.27;;;;;;;;;;5056141;28;20021;-73
2022/09/11 09:29:00;;;;;;;;;;;;;;;;;;5057137;28;20096;-72
2022/09/11 09:31:29;;;;;;;2.17;1.10;;;;;;;;;;5056070;28;20402;-73
2022/09/11 09:34:00;;;;;;;2.50;1.08;;;;;;;;;;5056392;28;20028;-72
2022/09/11 09:36:39;;;;;;;2.30;1.10;;;;;;;;;;5056316;28;20385;-72
2022/09/11 09:39:16;;;;;;;1.67;1.10;;;;;;;;;;5056467;28;20024;-74
2022/09/11 09:41:42;;;;;;;2.90;1.10;;;;;;;;;;5056448;28;20083;-73
2022/09/11 09:44:22;;;;;;;2.45;1.02;;;;;;;;;;5056025;28;20469;-73
2022/09/11 09:46:51;;;;;;;3.50;1.27;;;;;;;;;;5056124;28;20021;-73
2022/09/11 09:49:22;;;;;;;1.70;0.90;;;;;;;;;;5055645;28;20064;-73
2022/09/11 09:51:50;;;;;;;2.58;1.15;;;;;;;;;;5054891;28;20029;-72
2022/09/11 09:54:17;;;;;;;3.20;0.77;;;;;;;;;;5055961;28;20052;-73
2022/09/11 09:56:48;;;;;;;2.53;1.30;;;;;;;;;;5055607;28;20456;-74
2022/09/11 09:59:17;;;;;;;3.72;1.25;;;;;;;;;;5055415;28;20040;-73
2022/09/11 10:01:44;;;;;;;1.17;0.85;;;;;;;;;;5055512;28;20021;-74
2022/09/11 10:04:13;;;;;;;2.20;1.35;;;;;;;;;;5055921;28;20107;-73
2022/09/11 10:06:39;;;;;;;3.60;1.20;;;;;;;;;;5055906;28;20519;-74
2022/09/11 10:09:05;;;;;;;2.20;1.15;;;;;;;;;;5055644;28;20025;-73
2022/09/11 10:11:31;;;;;;;2.45;1.30;;;;;;;;;;5055300;28;20025;-73
2022/09/11 10:13:58;;;;;;;2.28;1.10;;;;;;;;;;5055277;28;20028;-74
2022/09/11 10:16:25;;;;;;;2.28;1.08;;;;;;;;;;5037337;28;20036;-72
2022/09/11 10:18:53;;;;;;;3.20;0.95;;;;;;;;;;5055447;28;20032;-74
2022/09/11 10:21:32;;;;;;;2.47;0.88;;;;;;;;;;5037288;28;20033;-74
2022/09/11 10:23:58;;;;;;;3.20;1.27;;;;;;;;;;5055040;28;20017;-74
2022/09/11 10:26:29;;;;;;;4.93;1.00;;;;;;;;;;5055123;28;20024;-74
2022/09/11 10:28:59;;;;;;;1.83;0.90;;;;;;;;;;5055565;28;20108;-72
2022/09/11 10:31:25;;;;;;;3.70;1.00;;;;;;;;;;5054960;28;20025;-73
2022/09/11 10:33:58;;;;;;;1.40;0.80;;;;;;;;;;5055203;28;20473;-72
2022/09/11 10:36:26;;;;;;;3.65;0.95;;;;;;;;;;5055176;28;20105;-73
2022/09/11 10:38:52;;;;;;;1.20;1.02;;;;;;;;;;5054858;28;20029;-72
2022/09/11 10:41:25;;;;;;;2.05;1.08;;;;;;;;;;5054816;28;20108;-74
2022/09/11 10:44:01;;;;;;;2.10;0.95;;;;;;;;;;5055209;28;20079;-72
2022/09/11 10:46:36;;;;;;;3.00;0.90;;;;;;;;;;5055208;28;20522;-73
2022/09/11 10:49:02;;;;;;;0.95;0.70;;;;;;;;;;5054897;28;20017;-73
2022/09/11 10:51:30;;;;;;;1.27;0.70;;;;;;;;;;5054829;28;20108;-73
2022/09/11 10:54:03;;;;;;;2.45;1.17;;;;;;;;;;5055102;28;20060;-74
2022/09/11 10:56:30;;;;;;;2.28;0.90;;;;;;;;;;5054628;28;20029;-73
2022/09/11 10:59:06;;;;;;;3.72;1.05;;;;;;;;;;5054250;28;20394;-73
2022/09/11 11:01:32;;;;;;;1.23;0.98;;;;;;;;;;5054781;28;20033;-74
2022/09/11 11:03:58;;;;;;;1.48;0.80;;;;;;;;;;5054278;28;20024;-73
2022/09/11 11:06:41;;;;;;;3.38;0.98;;;;;;;;;;5054476;28;20479;-73
2022/09/11 11:09:19;;;;;;;4.35;1.40;;;;;;;;;;5054783;28;20086;-73
2022/09/11 11:12:00;;;;;;;2.08;1.02;;;;;;;;;;5054425;28;20620;-73
2022/09/11 11:14:26;;;;;;;3.97;0.98;;;;;;;;;;5054132;28;20025;-74
2022/09/11 11:17:10;;;;;;;1.83;0.90;;;;;;;;;;5054065;28;20044;-73
2022/09/11 11:19:46;;;;;;;1.23;0.90;;;;;;;;;;5054061;28;20054;-73
2022/09/11 11:22:18;;;;;;;3.97;1.08;;;;;;;;;;5054539;28;20036;-74
2022/09/11 11:25:03;;;;;;;1.30;1.00;;;;;;;;;;5054160;28;20385;-73
2022/09/11 11:27:29;;;;;;;2.92;1.20;;;;;;;;;;5053922;28;20036;-74
2022/09/11 11:30:17;;;;;;;3.53;1.23;;;;;;;;;;5053881;28;20025;-73
2022/09/11 11:32:49;;;;;;;3.38;1.23;;;;;;;;;;5035776;28;20025;-73
2022/09/11 11:35:28;;;;;;;2.13;0.98;;;;;;;;;;5053788;28;20370;-73
2022/09/11 11:38:09;;;;;;;2.55;0.98;;;;;;;;;;5053772;28;20087;-74
2022/09/11 11:40:39;;;;;;;2.50;1.40;;;;;;;;;;5054009;28;20025;-74
2022/09/11 11:43:12;;;;;;;1.75;0.90;;;;;;;;;;5054442;28;20029;-72
2022/09/11 11:45:44;;;;;;;1.65;0.63;;;;;;;;;;5053501;28;20025;-73
2022/09/11 11:48:20;;;;;;;0.57;0.50;;;;;;;;;;5053515;28;20021;-73
2022/09/11 11:50:49;;;;;;;1.08;0.85;;;;;;;;;;5054069;28;20024;-73
2022/09/11 11:53:15;;;;;;;4.28;1.10;;;;;;;;;;5053502;28;20029;-72
2022/09/11 11:55:47;;;;;;;1.08;0.70;;;;;;;;;;5053684;28;20021;-74
2022/09/11 11:58:23;;;;;;;3.13;0.85;;;;;;;;;;5053184;28;20059;-74
2022/09/11 12:00:51;;;;;;;2.70;1.00;;;;;;;;;;5053380;28;20486;-74
2022/09/11 12:03:17;;;;;;;1.38;0.75;;;;;;;;;;5053320;28;20037;-72
2022/09/11 12:05:43;;;;;;;1.85;0.65;;;;;;;;;;5053422;28;20024;-75
2022/09/11 12:08:13;;;;;;;0.85;0.75;;;;;;;;;;5053509;28;20033;-73
2022/09/11 12:10:41;;;;;;;1.20;0.75;;;;;;;;;;5053507;28;20025;-74
2022/09/11 12:13:11;;;;;;;1.20;0.68;;;;;;;;;;5052628;28;20021;-73
2022/09/11 12:15:38;;;;;;;1.95;0.88;;;;;;;;;;5053737;28;20420;-72
2022/09/11 12:18:22;;;;;;;2.67;0.80;;;;;;;;;;5053461;28;20028;-74
2022/09/11 12:20:48;;;;;;;0.60;0.60;;;;;;;;;;5053470;28;20025;-72
2022/09/11 12:23:29;;;;;;;1.17;0.77;;;;;;;;;;5053402;28;20033;-74
2022/09/11 12:26:07;;;;;;;0.85;0.55;;;;;;;;;;5053054;28;20435;-73
2022/09/11 12:28:37;;;;;;;1.52;0.63;;;;;;;;;;5053134;28;20028;-74
2022/09/11 12:31:03;;;;;;;2.38;0.80;;;;;;;;;;5053041;28;20428;-73
2022/09/11 12:33:49;;;;;;;1.45;0.75;;;;;;;;;;5053027;28;20078;-74
2022/09/11 12:36:35;;;;;;;1.38;0.60;;;;;;;;;;5053307;28;20049;-73
2022/09/11 12:39:03;;;;;;;2.58;0.90;;;;;;;;;;5052975;28;20045;-74
2022/09/11 12:41:32;;;;;;;1.05;0.52;;;;;;;;;;5053524;28;20017;-73
2022/09/11 12:43:59;;;;;;;2.27;0.60;;;;;;;;;;5053367;28;20043;-73
2022/09/11 12:46:26;;;;;;;1.60;0.80;;;;;;;;;;5053230;28;20104;-73
2022/09/11 12:48:54;;;;;;;1.73;0.47;;;;;;;;;;5052889;28;20431;-71
2022/09/11 12:51:33;;;;;;;0.90;0.63;;;;;;;;;;5052903;28;20025;-73
2022/09/11 12:54:00;;;;;;;0.68;0.50;;;;;;;;;;5053097;28;20044;-72
2022/09/11 12:56:30;;;;;;;1.80;0.70;;;;;;;;;;5052895;28;20396;-74
2022/09/11 12:59:03;;;;;;;1.52;0.75;;;;;;;;;;5052581;28;20045;-74
2022/09/11 13:01:31;;;;;;;1.75;0.68;;;;;;;;;;5053072;28;20063;-75
2022/09/11 13:03:57;;;;;;;0.60;0.60;;;;;;;;;;5052578;28;20478;-73
2022/09/11 13:06:25;;;;;;;1.20;0.82;;;;;;;;;;5052583;28;20481;-72
2022/09/11 13:08:54;;;;;;;2.65;0.75;;;;;;;;;;5052380;28;20013;-73
2022/09/11 13:11:35;;;;;;;1.25;0.80;;;;;;;;;;5052607;28;20021;-73
2022/09/11 13:14:01;;;;;;;1.02;0.57;;;;;;;;;;5052621;28;20021;-72
2022/09/11 13:16:33;;;;;;;5.78;1.27;;;;;;;;;;5052818;28;20029;-73
2022/09/11 13:19:20;;;;;;;2.28;0.70;;;;;;;;;;5052954;28;20054;-74
2022/09/11 13:21:56;;;;;;;1.42;0.70;;;;;;;;;;5052884;28;20029;-74
2022/09/11 13:24:30;;;;;;;1.50;0.80;;;;;;;;;;5053284;28;20021;-73
2022/09/11 13:27:12;;;;;;;5.32;1.02;;;;;;;;;;5056135;28;20029;-72
2022/09/11 13:29:41;;;;;;;2.28;0.63;;;;;;;;;;5056409;28;20032;-73
2022/09/11 13:32:13;;;;;;;0.53;0.50;;;;;;;;;;5038256;28;20025;-74
2022/09/11 13:34:43;;;;;;;1.58;0.98;;;;;;;;;;5056373;28;20104;-74
2022/09/11 13:37:09;;;;;;;;;;;;;;;;;;5056430;28;20455;-73
2022/09/11 13:39:37;;;;;;;2.78;0.90;;;;;;;;;;5056324;28;19997;-73
2022/09/11 13:42:03;;;;;;;2.60;0.60;;;;;;;;;;5056474;28;20025;-73
2022/09/11 13:44:43;;;;;;;1.45;0.60;;;;;;;;;;5056331;28;20029;-73
2022/09/11 13:47:35;;;;;;;3.05;0.90;;;;;;;;;;5055812;28;20028;-73
2022/09/11 13:50:05;;;;;;;3.13;0.85;;;;;;;;;;5051627;28;20037;-73
2022/09/11 13:52:32;;;;;;;1.27;0.60;;;;;;;;;;5038002;28;20040;-72
2022/09/11 13:55:00;;;;;;;3.28;0.98;;;;;;;;;;5055636;28;20504;-72
2022/09/11 13:57:27;;;;;;;0.73;0.60;;;;;;;;;;5055665;28;20095;-74
2022/09/11 13:59:55;;;;;;;1.23;0.88;;;;;;;;;;5037486;28;20400;-72
2022/09/11 14:02:21;;;;;;;1.27;0.68;;;;;;;;;;5055529;28;20032;-72
2022/09/11 14:04:48;;;;;;;0.90;0.77;;;;;;;;;;5055721;28;20025;-73
2022/09/11 14:07:22;;;;;;;1.40;0.50;;;;;;;;;;5055428;28;20105;-72
2022/09/11 14:09:49;;;;;;;0.77;0.57;;;;;;;;;;5055771;28;20028;-73
2022/09/11 14:12:15;;;;;;;1.50;1.02;;;;;;;;;;5055389;28;20029;-72
2022/09/11 14:14:45;;;;;;;2.58;0.77;;;;;;;;;;5055838;28;20032;-73
2022/09/11 14:17:12;;;;;;;1.05;0.70;;;;;;;;;;5055304;28;20477;-73
2022/09/11 14:19:42;;;;;;;2.90;0.70;;;;;;;;;;5055199;28;20485;-73
2022/09/11 14:22:15;;;;;;;1.27;0.63;;;;;;;;;;5055432;28;20036;-73
2022/09/11 14:24:50;;;;;;;0.75;0.75;;;;;;;;;;5055053;28;20053;-73
2022/09/11 14:27:35;;;;;;;1.95;0.90;;;;;;;;;;5055376;28;20027;-73
2022/09/11 14:30:01;;;;;;;1.55;0.70;;;;;;;;;;5055381;28;20492;-73
2022/09/11 14:32:28;;;;;;;1.20;0.70;;;;;;;;;;5055002;28;20021;-74
2022/09/11 14:34:54;;;;;;;1.60;0.73;;;;;;;;;;5054842;28;20028;-73
2022/09/11 14:37:20;;;;;;;2.67;0.82;;;;;;;;;;5054612;28;20033;-73
2022/09/11 14:39:55;;;;;;;2.45;0.50;;;;;;;;;;5054826;28;20503;-74
2022/09/11 14:42:23;;;;;;;1.73;0.60;;;;;;;;;;5055340;28;20025;-74
2022/09/11 14:44:49;;;;;;;1.58;0.70;;;;;;;;;;5054920;28;20049;-72
2022/09/11 14:47:18;;;;;;;1.17;0.70;;;;;;;;;;5054677;28;20028;-74
2022/09/11 14:49:47;;;;;;;1.80;0.73;;;;;;;;;;5055216;28;20096;-73
2022/09/11 14:52:14;;;;;;;2.65;0.85;;;;;;;;;;5054764;28;20016;-73
2022/09/11 14:54:40;;;;;;;1.02;0.57;;;;;;;;;;5054473;28;20033;-72
2022/09/11 14:57:13;;;;;;;1.25;0.75;;;;;;;;;;5054533;28;20473;-73